sensor_id;sensor_type;location;lat;lon;timestamp;temperature;humidity
11538;DHT22;50159;49.426;11.182;2023-11-21T00:01:26;7.30;99.90
11538;DHT22;50159;49.426;11.182;2023-11-21T00:03:52;7.30;99.90
11538;DHT22;50159;49.426;11.182;2023-11-21T00:06:21;7.30;99.90
11538;DHT22;50159;49.426;11.182;2023-11-21T00:08:48;7.40;99.90
11538;DHT22;50159;49.426;11.182;2023-11-21T00:11:15;7.30;99.90
11538;DHT22;50159;49.426;11.182;2023-11-21T00:13:42;7.30;99.90
11538;DHT22;50159;49.426;11.182;2023-11-21T00:16:09;7.30;99.90
11538;DHT22;50159;49.426;11.182;2023-11-21T00:18:36;7.30;99.90
11538;DHT22;50159;49.426;11.182;2023-11-21T00:21:02;7.30;99.90
11538;DHT22;50159;49.426;11.182;2023-11-21T00:23:30;7.30;99.90
11538;DHT22;50159;49.426;11.182;2023-11-21T00:25:57;7.30;99.90
11538;DHT22;50159;49.426;11.182;2023-11-21T00:28:25;7.30;99.90
11538;DHT22;50159;49.426;11.182;2023-11-21T00:30:52;7.30;99.90
11538;DHT22;50159;49.426;11.182;2023-11-21T00:33:20;7.30;99.90
11538;DHT22;50159;49.426;11.182;2023-11-21T00:35:47;7.30;99.90
11538;DHT22;50159;49.426;11.182;2023-11-21T00:38:14;7.30;99.90
11538;DHT22;50159;49.426;11.182;2023-11-21T00:40:40;7.30;99.90
11538;DHT22;50159;49.426;11.182;2023-11-21T00:45:35;7.30;99.90
11538;DHT22;50159;49.426;11.182;2023-11-21T00:48:03;7.30;99.90
11538;DHT22;50159;49.426;11.182;2023-11-21T00:50:31;7.30;99.90
11538;DHT22;50159;49.426;11.182;2023-11-21T00:52:58;7.30;99.90
11538;DHT22;50159;49.426;11.182;2023-11-21T00:55:25;7.20;99.90
11538;DHT22;50159;49.426;11.182;2023-11-21T00:57:52;7.20;99.90
11538;DHT22;50159;49.426;11.182;2023-11-21T01:00:19;7.20;99.90
11538;DHT22;50159;49.426;11.182;2023-11-21T01:02:46;7.20;99.90
11538;DHT22;50159;49.426;11.182;2023-11-21T01:05:14;7.20;99.90
11538;DHT22;50159;49.426;11.182;2023-11-21T01:07:41;7.20;99.90
11538;DHT22;50159;49.426;11.182;2023-11-21T01:10:08;7.20;99.90
11538;DHT22;50159;49.426;11.182;2023-11-21T01:12:37;7.20;99.90
11538;DHT22;50159;49.426;11.182;2023-11-21T01:15:06;7.20;99.90
11538;DHT22;50159;49.426;11.182;2023-11-21T01:17:34;7.20;99.90
11538;DHT22;50159;49.426;11.182;2023-11-21T01:20:02;7.20;99.90
11538;DHT22;50159;49.426;11.182;2023-11-21T01:22:33;7.20;99.90
11538;DHT22;50159;49.426;11.182;2023-11-21T01:25:00;7.20;99.90
11538;DHT22;50159;49.426;11.182;2023-11-21T01:27:26;7.20;99.90
11538;DHT22;50159;49.426;11.182;2023-11-21T01:29:53;7.20;99.90
11538;DHT22;50159;49.426;11.182;2023-11-21T01:32:20;7.20;99.90
11538;DHT22;50159;49.426;11.182;2023-11-21T01:34:48;7.20;99.90
11538;DHT22;50159;49.426;11.182;2023-11-21T01:37:16;7.20;99.90
11538;DHT22;50159;49.426;11.182;2023-11-21T01:39:44;7.20;99.90
11538;DHT22;50159;49.426;11.182;2023-11-21T01:42:11;7.20;99.90
11538;DHT22;50159;49.426;11.182;2023-11-21T01:44:39;7.10;99.90
11538;DHT22;50159;49.426;11.182;2023-11-21T01:47:07;7.20;99.90
11538;DHT22;50159;49.426;11.182;2023-11-21T01:49:36;7.20;99.90
11538;DHT22;50159;49.426;11.182;2023-11-21T01:52:03;7.20;99.90
11538;DHT22;50159;49.426;11.182;2023-11-21T01:54:31;7.10;99.90
11538;DHT22;50159;49.426;11.182;2023-11-21T01:57:01;7.10;99.90
11538;DHT22;50159;49.426;11.182;2023-11-21T01:59:35;7.10;99.90
11538;DHT22;50159;49.426;11.182;2023-11-21T02:02:05;7.10;99.90
11538;DHT22;50159;49.426;11.182;2023-11-21T02:04:33;7.10;99.90
11538;DHT22;50159;49.426;11.182;2023-11-21T02:07:01;7.10;99.90
11538;DHT22;50159;49.426;11.182;2023-11-21T02:09:28;7.10;99.90
11538;DHT22;50159;49.426;11.182;2023-11-21T02:11:58;7.10;99.90
11538;DHT22;50159;49.426;11.182;2023-11-21T02:14:26;7.10;99.90
11538;DHT22;50159;49.426;11.182;2023-11-21T02:16:55;7.10;99.90
11538;DHT22;50159;49.426;11.182;2023-11-21T02:19:23;7.10;99.90
11538;DHT22;50159;49.426;11.182;2023-11-21T02:21:53;7.10;99.90
11538;DHT22;50159;49.426;11.182;2023-11-21T02:24:20;7.10;99.90
11538;DHT22;50159;49.426;11.182;2023-11-21T02:26:48;7.10;99.90
11538;DHT22;50159;49.426;11.182;2023-11-21T02:29:19;7.10;99.90
11538;DHT22;50159;49.426;11.182;2023-11-21T02:31:51;7.10;99.90
11538;DHT22;50159;49.426;11.182;2023-11-21T02:34:18;7.10;99.90
11538;DHT22;50159;49.426;11.182;2023-11-21T02:36:45;7.20;99.90
11538;DHT22;50159;49.426;11.182;2023-11-21T02:39:12;7.10;99.90
11538;DHT22;50159;49.426;11.182;2023-11-21T02:41:40;7.10;99.90
11538;DHT22;50159;49.426;11.182;2023-11-21T02:44:06;7.10;99.90
11538;DHT22;50159;49.426;11.182;2023-11-21T02:46:34;7.10;99.90
11538;DHT22;50159;49.426;11.182;2023-11-21T02:49:02;7.10;99.90
11538;DHT22;50159;49.426;11.182;2023-11-21T02:51:30;7.10;99.90
11538;DHT22;50159;49.426;11.182;2023-11-21T02:53:57;7.10;99.90
11538;DHT22;50159;49.426;11.182;2023-11-21T02:56:25;7.10;99.90
11538;DHT22;50159;49.426;11.182;2023-11-21T02:58:55;7.20;99.90
11538;DHT22;50159;49.426;11.182;2023-11-21T03:01:23;7.10;99.90
11538;DHT22;50159;49.426;11.182;2023-11-21T03:03:54;7.10;99.90
11538;DHT22;50159;49.426;11.182;2023-11-21T03:06:22;7.10;99.90
11538;DHT22;50159;49.426;11.182;2023-11-21T03:08:49;7.10;99.90
11538;DHT22;50159;49.426;11.182;2023-11-21T03:11:16;7.10;99.90
11538;DHT22;50159;49.426;11.182;2023-11-21T03:13:42;7.10;99.90
11538;DHT22;50159;49.426;11.182;2023-11-21T03:16:10;7.10;99.90
11538;DHT22;50159;49.426;11.182;2023-11-21T03:18:40;7.10;99.90
11538;DHT22;50159;49.426;11.182;2023-11-21T03:21:08;7.10;99.90
11538;DHT22;50159;49.426;11.182;2023-11-21T03:23:36;7.10;99.90
11538;DHT22;50159;49.426;11.182;2023-11-21T03:26:03;7.10;99.90
11538;DHT22;50159;49.426;11.182;2023-11-21T03:28:30;7.10;99.90
11538;DHT22;50159;49.426;11.182;2023-11-21T03:30:57;7.10;99.90
11538;DHT22;50159;49.426;11.182;2023-11-21T03:33:24;7.10;99.90
11538;DHT22;50159;49.426;11.182;2023-11-21T03:35:51;7.10;99.90
11538;DHT22;50159;49.426;11.182;2023-11-21T03:38:19;7.10;99.90
11538;DHT22;50159;49.426;11.182;2023-11-21T03:40:46;7.10;99.90
11538;DHT22;50159;49.426;11.182;2023-11-21T03:43:14;7.00;99.90
11538;DHT22;50159;49.426;11.182;2023-11-21T03:45:41;7.00;99.90
11538;DHT22;50159;49.426;11.182;2023-11-21T03:48:08;7.00;99.90
11538;DHT22;50159;49.426;11.182;2023-11-21T03:50:35;7.00;99.90
11538;DHT22;50159;49.426;11.182;2023-11-21T03:53:02;7.00;99.90
11538;DHT22;50159;49.426;11.182;2023-11-21T03:55:30;7.00;99.90
11538;DHT22;50159;49.426;11.182;2023-11-21T03:57:58;7.10;99.90
11538;DHT22;50159;49.426;11.182;2023-11-21T04:00:25;7.10;99.90
11538;DHT22;50159;49.426;11.182;2023-11-21T04:02:53;7.10;99.90
11538;DHT22;50159;49.426;11.182;2023-11-21T04:05:21;7.10;99.90
11538;DHT22;50159;49.426;11.182;2023-11-21T04:07:51;7.10;99.90
11538;DHT22;50159;49.426;11.182;2023-11-21T04:10:18;7.10;99.90
11538;DHT22;50159;49.426;11.182;2023-11-21T04:12:48;7.10;99.90
11538;DHT22;50159;49.426;11.182;2023-11-21T04:15:15;7.10;99.90
11538;DHT22;50159;49.426;11.182;2023-11-21T04:17:42;7.20;99.90
11538;DHT22;50159;49.426;11.182;2023-11-21T04:20:09;7.20;99.90
11538;DHT22;50159;49.426;11.182;2023-11-21T04:22:39;7.20;99.90
11538;DHT22;50159;49.426;11.182;2023-11-21T04:25:11;7.20;99.90
11538;DHT22;50159;49.426;11.182;2023-11-21T04:27:40;7.20;99.90
11538;DHT22;50159;49.426;11.182;2023-11-21T04:30:11;7.20;99.90
11538;DHT22;50159;49.426;11.182;2023-11-21T04:32:38;7.20;99.90
11538;DHT22;50159;49.426;11.182;2023-11-21T04:35:06;7.10;99.90
11538;DHT22;50159;49.426;11.182;2023-11-21T04:37:35;7.10;99.90
11538;DHT22;50159;49.426;11.182;2023-11-21T04:40:02;7.20;99.90
11538;DHT22;50159;49.426;11.182;2023-11-21T04:42:34;7.20;99.90
11538;DHT22;50159;49.426;11.182;2023-11-21T04:45:04;7.20;99.90
11538;DHT22;50159;49.426;11.182;2023-11-21T04:47:35;7.20;99.90
11538;DHT22;50159;49.426;11.182;2023-11-21T04:50:03;7.10;99.90
11538;DHT22;50159;49.426;11.182;2023-11-21T04:52:30;7.10;99.90
11538;DHT22;50159;49.426;11.182;2023-11-21T04:54:59;7.10;99.90
11538;DHT22;50159;49.426;11.182;2023-11-21T04:57:27;7.10;99.90
11538;DHT22;50159;49.426;11.182;2023-11-21T04:59:55;7.10;99.90
11538;DHT22;50159;49.426;11.182;2023-11-21T05:02:22;7.10;99.90
11538;DHT22;50159;49.426;11.182;2023-11-21T05:05:02;7.10;99.90
11538;DHT22;50159;49.426;11.182;2023-11-21T05:07:30;7.10;99.90
11538;DHT22;50159;49.426;11.182;2023-11-21T05:09:58;7.10;99.90
11538;DHT22;50159;49.426;11.182;2023-11-21T05:12:26;7.10;99.90
11538;DHT22;50159;49.426;11.182;2023-11-21T05:14:52;7.10;99.90
11538;DHT22;50159;49.426;11.182;2023-11-21T05:17:19;7.10;99.90
11538;DHT22;50159;49.426;11.182;2023-11-21T05:19:46;7.10;99.90
11538;DHT22;50159;49.426;11.182;2023-11-21T05:22:16;7.10;99.90
11538;DHT22;50159;49.426;11.182;2023-11-21T05:24:42;7.10;99.90
11538;DHT22;50159;49.426;11.182;2023-11-21T05:27:09;7.10;99.90
11538;DHT22;50159;49.426;11.182;2023-11-21T05:29:36;7.10;99.90
11538;DHT22;50159;49.426;11.182;2023-11-21T05:32:04;7.10;99.90
11538;DHT22;50159;49.426;11.182;2023-11-21T05:34:31;7.00;99.90
11538;DHT22;50159;49.426;11.182;2023-11-21T05:36:58;7.10;99.90
11538;DHT22;50159;49.426;11.182;2023-11-21T05:39:25;7.00;99.90
11538;DHT22;50159;49.426;11.182;2023-11-21T05:41:52;7.00;99.90
11538;DHT22;50159;49.426;11.182;2023-11-21T05:44:19;7.00;99.90
11538;DHT22;50159;49.426;11.182;2023-11-21T05:46:45;7.10;99.90
11538;DHT22;50159;49.426;11.182;2023-11-21T05:49:13;7.10;99.90
11538;DHT22;50159;49.426;11.182;2023-11-21T05:51:39;7.10;99.90
11538;DHT22;50159;49.426;11.182;2023-11-21T05:54:06;7.10;99.90
11538;DHT22;50159;49.426;11.182;2023-11-21T05:56:34;7.10;99.90
11538;DHT22;50159;49.426;11.182;2023-11-21T05:59:01;7.10;99.90
11538;DHT22;50159;49.426;11.182;2023-11-21T06:01:29;7.10;99.90
11538;DHT22;50159;49.426;11.182;2023-11-21T06:03:56;7.10;99.90
11538;DHT22;50159;49.426;11.182;2023-11-21T06:06:24;7.00;99.90
11538;DHT22;50159;49.426;11.182;2023-11-21T06:08:51;7.00;99.90
11538;DHT22;50159;49.426;11.182;2023-11-21T06:11:18;7.00;99.90
11538;DHT22;50159;49.426;11.182;2023-11-21T06:13:45;7.00;99.90
11538;DHT22;50159;49.426;11.182;2023-11-21T06:16:12;7.00;99.90
11538;DHT22;50159;49.426;11.182;2023-11-21T06:18:43;7.00;99.90
11538;DHT22;50159;49.426;11.182;2023-11-21T06:21:10;7.00;99.90
11538;DHT22;50159;49.426;11.182;2023-11-21T06:23:37;7.00;99.90
11538;DHT22;50159;49.426;11.182;2023-11-21T06:26:05;7.00;99.90
11538;DHT22;50159;49.426;11.182;2023-11-21T06:28:32;7.00;99.90
11538;DHT22;50159;49.426;11.182;2023-11-21T06:30:59;7.00;99.90
11538;DHT22;50159;49.426;11.182;2023-11-21T06:33:32;7.00;99.90
11538;DHT22;50159;49.426;11.182;2023-11-21T06:35:59;7.00;99.90
11538;DHT22;50159;49.426;11.182;2023-11-21T06:38:26;7.00;99.90
11538;DHT22;50159;49.426;11.182;2023-11-21T06:40:56;7.00;99.90
11538;DHT22;50159;49.426;11.182;2023-11-21T06:43:24;7.00;99.90
11538;DHT22;50159;49.426;11.182;2023-11-21T06:45:51;7.00;99.90
11538;DHT22;50159;49.426;11.182;2023-11-21T06:48:18;7.00;99.90
11538;DHT22;50159;49.426;11.182;2023-11-21T06:50:45;7.10;99.90
11538;DHT22;50159;49.426;11.182;2023-11-21T06:53:13;7.00;99.90
11538;DHT22;50159;49.426;11.182;2023-11-21T06:55:40;7.10;99.90
11538;DHT22;50159;49.426;11.182;2023-11-21T06:58:07;7.00;99.90
11538;DHT22;50159;49.426;11.182;2023-11-21T07:00:33;7.10;99.90
11538;DHT22;50159;49.426;11.182;2023-11-21T07:03:00;7.10;99.90
11538;DHT22;50159;49.426;11.182;2023-11-21T07:05:27;7.10;99.90
11538;DHT22;50159;49.426;11.182;2023-11-21T07:07:54;7.10;99.90
11538;DHT22;50159;49.426;11.182;2023-11-21T07:10:21;7.10;99.90
11538;DHT22;50159;49.426;11.182;2023-11-21T07:12:48;7.20;99.90
11538;DHT22;50159;49.426;11.182;2023-11-21T07:15:15;7.20;99.90
11538;DHT22;50159;49.426;11.182;2023-11-21T07:17:41;7.20;99.90
11538;DHT22;50159;49.426;11.182;2023-11-21T07:20:10;7.20;99.90
11538;DHT22;50159;49.426;11.182;2023-11-21T07:22:38;7.20;99.90
11538;DHT22;50159;49.426;11.182;2023-11-21T07:25:05;7.20;99.90
11538;DHT22;50159;49.426;11.182;2023-11-21T07:27:33;7.20;99.90
11538;DHT22;50159;49.426;11.182;2023-11-21T07:30:03;7.20;99.90
11538;DHT22;50159;49.426;11.182;2023-11-21T07:32:32;7.30;99.90
11538;DHT22;50159;49.426;11.182;2023-11-21T07:34:59;7.30;99.90
11538;DHT22;50159;49.426;11.182;2023-11-21T07:37:28;7.30;99.90
11538;DHT22;50159;49.426;11.182;2023-11-21T07:39:55;7.30;99.90
11538;DHT22;50159;49.426;11.182;2023-11-21T07:42:26;7.40;99.90
11538;DHT22;50159;49.426;11.182;2023-11-21T07:44:53;7.40;99.90
11538;DHT22;50159;49.426;11.182;2023-11-21T07:47:19;7.50;99.90
11538;DHT22;50159;49.426;11.182;2023-11-21T07:49:46;7.40;99.90
11538;DHT22;50159;49.426;11.182;2023-11-21T07:52:13;7.50;99.90
11538;DHT22;50159;49.426;11.182;2023-11-21T07:54:42;7.50;99.90
11538;DHT22;50159;49.426;11.182;2023-11-21T07:57:09;7.60;99.90
11538;DHT22;50159;49.426;11.182;2023-11-21T07:59:40;7.60;99.90
11538;DHT22;50159;49.426;11.182;2023-11-21T08:02:08;7.60;99.90
11538;DHT22;50159;49.426;11.182;2023-11-21T08:04:35;7.60;99.90
11538;DHT22;50159;49.426;11.182;2023-11-21T08:07:02;7.60;99.90
11538;DHT22;50159;49.426;11.182;2023-11-21T08:09:30;7.70;99.90
11538;DHT22;50159;49.426;11.182;2023-11-21T08:11:57;7.70;99.90
11538;DHT22;50159;49.426;11.182;2023-11-21T08:14:24;7.70;99.90
11538;DHT22;50159;49.426;11.182;2023-11-21T08:16:53;7.80;99.90
11538;DHT22;50159;49.426;11.182;2023-11-21T08:19:24;7.80;99.90
11538;DHT22;50159;49.426;11.182;2023-11-21T08:21:52;7.90;99.90
11538;DHT22;50159;49.426;11.182;2023-11-21T08:24:21;8.00;99.90
11538;DHT22;50159;49.426;11.182;2023-11-21T08:26:48;8.00;99.90
11538;DHT22;50159;49.426;11.182;2023-11-21T08:29:16;8.10;99.90
11538;DHT22;50159;49.426;11.182;2023-11-21T08:31:43;8.10;99.90
11538;DHT22;50159;49.426;11.182;2023-11-21T08:34:13;8.10;99.90
11538;DHT22;50159;49.426;11.182;2023-11-21T08:36:44;8.10;99.90
11538;DHT22;50159;49.426;11.182;2023-11-21T08:39:12;8.20;99.90
11538;DHT22;50159;49.426;11.182;2023-11-21T08:41:39;8.30;99.90
11538;DHT22;50159;49.426;11.182;2023-11-21T08:44:06;8.30;99.90
11538;DHT22;50159;49.426;11.182;2023-11-21T08:46:33;8.40;99.90
11538;DHT22;50159;49.426;11.182;2023-11-21T08:49:04;8.40;99.90
11538;DHT22;50159;49.426;11.182;2023-11-21T08:51:30;8.50;99.90
11538;DHT22;50159;49.426;11.182;2023-11-21T08:53:58;8.50;99.90
11538;DHT22;50159;49.426;11.182;2023-11-21T08:56:27;8.50;99.90
11538;DHT22;50159;49.426;11.182;2023-11-21T08:58:54;8.60;99.90
11538;DHT22;50159;49.426;11.182;2023-11-21T09:01:20;8.60;99.90
11538;DHT22;50159;49.426;11.182;2023-11-21T09:03:47;8.70;99.90
11538;DHT22;50159;49.426;11.182;2023-11-21T09:06:16;8.70;99.90
11538;DHT22;50159;49.426;11.182;2023-11-21T09:08:43;8.70;99.90
11538;DHT22;50159;49.426;11.182;2023-11-21T09:11:10;8.70;99.90
11538;DHT22;50159;49.426;11.182;2023-11-21T09:13:37;8.70;99.90
11538;DHT22;50159;49.426;11.182;2023-11-21T09:16:04;8.80;99.90
11538;DHT22;50159;49.426;11.182;2023-11-21T09:18:32;8.80;99.90
11538;DHT22;50159;49.426;11.182;2023-11-21T09:20:59;8.80;99.90
11538;DHT22;50159;49.426;11.182;2023-11-21T09:23:26;8.80;99.90
11538;DHT22;50159;49.426;11.182;2023-11-21T09:25:53;8.80;99.90
11538;DHT22;50159;49.426;11.182;2023-11-21T09:28:23;8.80;99.90
11538;DHT22;50159;49.426;11.182;2023-11-21T09:30:50;8.80;99.90
11538;DHT22;50159;49.426;11.182;2023-11-21T09:33:17;8.80;99.90
11538;DHT22;50159;49.426;11.182;2023-11-21T09:35:44;8.80;99.90
11538;DHT22;50159;49.426;11.182;2023-11-21T09:38:11;8.80;99.90
11538;DHT22;50159;49.426;11.182;2023-11-21T09:40:38;8.80;99.90
11538;DHT22;50159;49.426;11.182;2023-11-21T09:43:08;8.90;99.90
11538;DHT22;50159;49.426;11.182;2023-11-21T09:45:47;9.00;99.90
11538;DHT22;50159;49.426;11.182;2023-11-21T09:48:15;8.90;99.90
11538;DHT22;50159;49.426;11.182;2023-11-21T09:50:43;8.90;99.90
11538;DHT22;50159;49.426;11.182;2023-11-21T09:53:19;8.90;99.90
11538;DHT22;50159;49.426;11.182;2023-11-21T09:55:54;8.90;99.90
11538;DHT22;50159;49.426;11.182;2023-11-21T09:58:21;9.00;99.90
11538;DHT22;50159;49.426;11.182;2023-11-21T10:00:53;9.00;99.90
11538;DHT22;50159;49.426;11.182;2023-11-21T10:03:23;9.10;99.90
11538;DHT22;50159;49.426;11.182;2023-11-21T10:05:51;9.10;99.90
11538;DHT22;50159;49.426;11.182;2023-11-21T10:08:22;9.20;99.90
11538;DHT22;50159;49.426;11.182;2023-11-21T10:10:53;9.30;99.90
11538;DHT22;50159;49.426;11.182;2023-11-21T10:13:21;9.30;99.90
11538;DHT22;50159;49.426;11.182;2023-11-21T10:15:51;9.40;99.90
11538;DHT22;50159;49.426;11.182;2023-11-21T10:18:19;9.60;99.90
11538;DHT22;50159;49.426;11.182;2023-11-21T10:20:49;9.70;99.90
11538;DHT22;50159;49.426;11.182;2023-11-21T10:23:21;10.00;99.90
11538;DHT22;50159;49.426;11.182;2023-11-21T10:25:50;10.20;99.90
11538;DHT22;50159;49.426;11.182;2023-11-21T10:28:19;10.40;99.90
11538;DHT22;50159;49.426;11.182;2023-11-21T10:30:47;10.50;99.90
11538;DHT22;50159;49.426;11.182;2023-11-21T10:33:14;10.50;99.90
11538;DHT22;50159;49.426;11.182;2023-11-21T10:38:08;10.40;99.90
11538;DHT22;50159;49.426;11.182;2023-11-21T10:40:43;10.30;99.90
11538;DHT22;50159;49.426;11.182;2023-11-21T10:43:11;10.20;99.90
11538;DHT22;50159;49.426;11.182;2023-11-21T10:45:40;10.20;99.90
11538;DHT22;50159;49.426;11.182;2023-11-21T10:48:08;10.10;99.90
11538;DHT22;50159;49.426;11.182;2023-11-21T10:50:37;10.10;99.90
11538;DHT22;50159;49.426;11.182;2023-11-21T10:53:04;10.10;99.90
11538;DHT22;50159;49.426;11.182;2023-11-21T10:55:35;10.10;99.90
11538;DHT22;50159;49.426;11.182;2023-11-21T10:58:03;10.20;99.90
11538;DHT22;50159;49.426;11.182;2023-11-21T11:00:36;10.40;99.90
11538;DHT22;50159;49.426;11.182;2023-11-21T11:03:06;10.50;99.90
11538;DHT22;50159;49.426;11.182;2023-11-21T11:05:40;10.60;99.90
11538;DHT22;50159;49.426;11.182;2023-11-21T11:08:22;10.70;99.90
11538;DHT22;50159;49.426;11.182;2023-11-21T11:10:55;10.70;99.90
11538;DHT22;50159;49.426;11.182;2023-11-21T11:13:22;10.60;99.90
11538;DHT22;50159;49.426;11.182;2023-11-21T11:15:51;10.60;99.90
11538;DHT22;50159;49.426;11.182;2023-11-21T11:18:26;10.50;99.90
11538;DHT22;50159;49.426;11.182;2023-11-21T11:20:53;10.50;99.90
11538;DHT22;50159;49.426;11.182;2023-11-21T11:26:37;10.40;99.90
11538;DHT22;50159;49.426;11.182;2023-11-21T11:29:23;10.40;99.90
11538;DHT22;50159;49.426;11.182;2023-11-21T11:32:13;10.40;99.90
11538;DHT22;50159;49.426;11.182;2023-11-21T11:35:04;10.30;99.90
11538;DHT22;50159;49.426;11.182;2023-11-21T11:37:41;10.30;99.90
11538;DHT22;50159;49.426;11.182;2023-11-21T11:40:11;10.30;99.90
11538;DHT22;50159;49.426;11.182;2023-11-21T11:42:38;10.30;99.90
11538;DHT22;50159;49.426;11.182;2023-11-21T11:45:26;10.30;99.90
11538;DHT22;50159;49.426;11.182;2023-11-21T11:48:00;10.30;99.90
11538;DHT22;50159;49.426;11.182;2023-11-21T11:50:27;10.30;99.90
11538;DHT22;50159;49.426;11.182;2023-11-21T11:53:15;10.30;99.90
11538;DHT22;50159;49.426;11.182;2023-11-21T11:55:42;10.30;99.90
11538;DHT22;50159;49.426;11.182;2023-11-21T11:58:10;10.20;99.90
11538;DHT22;50159;49.426;11.182;2023-11-21T12:00:38;10.00;99.90
11538;DHT22;50159;49.426;11.182;2023-11-21T12:03:08;9.90;99.90
11538;DHT22;50159;49.426;11.182;2023-11-21T12:05:36;9.90;99.90
11538;DHT22;50159;49.426;11.182;2023-11-21T12:08:06;9.80;99.90
11538;DHT22;50159;49.426;11.182;2023-11-21T12:10:35;9.80;99.90
11538;DHT22;50159;49.426;11.182;2023-11-21T12:13:10;9.80;99.90
11538;DHT22;50159;49.426;11.182;2023-11-21T12:15:39;9.80;99.90
11538;DHT22;50159;49.426;11.182;2023-11-21T12:18:08;9.80;99.90
11538;DHT22;50159;49.426;11.182;2023-11-21T12:20:35;9.90;99.90
11538;DHT22;50159;49.426;11.182;2023-11-21T12:23:05;9.90;99.90
11538;DHT22;50159;49.426;11.182;2023-11-21T12:25:33;9.90;99.90
11538;DHT22;50159;49.426;11.182;2023-11-21T12:28:01;9.90;99.90
11538;DHT22;50159;49.426;11.182;2023-11-21T12:30:31;9.90;99.90
11538;DHT22;50159;49.426;11.182;2023-11-21T12:32:59;9.90;99.90
11538;DHT22;50159;49.426;11.182;2023-11-21T12:35:29;10.00;99.90
11538;DHT22;50159;49.426;11.182;2023-11-21T12:37:57;10.00;99.90
11538;DHT22;50159;49.426;11.182;2023-11-21T12:40:25;9.90;99.90
11538;DHT22;50159;49.426;11.182;2023-11-21T12:42:55;9.80;99.90
11538;DHT22;50159;49.426;11.182;2023-11-21T12:45:25;9.80;99.90
11538;DHT22;50159;49.426;11.182;2023-11-21T12:48:02;9.80;99.90
11538;DHT22;50159;49.426;11.182;2023-11-21T12:50:34;9.80;99.90
11538;DHT22;50159;49.426;11.182;2023-11-21T12:53:09;9.80;99.90
11538;DHT22;50159;49.426;11.182;2023-11-21T12:55:39;9.80;99.90
11538;DHT22;50159;49.426;11.182;2023-11-21T12:58:09;9.90;99.90
11538;DHT22;50159;49.426;11.182;2023-11-21T13:00:48;9.90;99.90
11538;DHT22;50159;49.426;11.182;2023-11-21T13:03:16;9.90;99.90
11538;DHT22;50159;49.426;11.182;2023-11-21T13:05:48;10.00;99.90
11538;DHT22;50159;49.426;11.182;2023-11-21T13:08:20;10.00;99.90
11538;DHT22;50159;49.426;11.182;2023-11-21T13:10:52;10.10;99.90
11538;DHT22;50159;49.426;11.182;2023-11-21T13:13:22;10.10;99.90
11538;DHT22;50159;49.426;11.182;2023-11-21T13:15:53;10.10;99.90
11538;DHT22;50159;49.426;11.182;2023-11-21T13:18:25;10.10;99.90
11538;DHT22;50159;49.426;11.182;2023-11-21T13:20:56;10.10;99.90
11538;DHT22;50159;49.426;11.182;2023-11-21T13:23:25;10.10;99.90
11538;DHT22;50159;49.426;11.182;2023-11-21T13:25:54;10.10;99.90
11538;DHT22;50159;49.426;11.182;2023-11-21T13:28:34;10.10;99.90
11538;DHT22;50159;49.426;11.182;2023-11-21T13:31:05;10.10;99.90
11538;DHT22;50159;49.426;11.182;2023-11-21T13:33:38;10.20;99.90
11538;DHT22;50159;49.426;11.182;2023-11-21T13:36:07;10.20;99.90
11538;DHT22;50159;49.426;11.182;2023-11-21T13:38:37;10.30;99.90
11538;DHT22;50159;49.426;11.182;2023-11-21T13:41:08;10.30;99.90
11538;DHT22;50159;49.426;11.182;2023-11-21T13:43:36;10.30;99.90
11538;DHT22;50159;49.426;11.182;2023-11-21T13:46:04;10.30;99.90
11538;DHT22;50159;49.426;11.182;2023-11-21T13:48:40;10.40;99.90
11538;DHT22;50159;49.426;11.182;2023-11-21T13:51:09;12.00;99.90
11538;DHT22;50159;49.426;11.182;2023-11-21T13:53:44;14.40;99.90
11538;DHT22;50159;49.426;11.182;2023-11-21T13:56:15;16.40;99.90
11538;DHT22;50159;49.426;11.182;2023-11-21T13:58:50;18.40;99.90
11538;DHT22;50159;49.426;11.182;2023-11-21T14:01:22;20.90;91.50
11538;DHT22;50159;49.426;11.182;2023-11-21T14:04:03;22.90;73.50
11538;DHT22;50159;49.426;11.182;2023-11-21T14:06:43;24.40;60.50
11538;DHT22;50159;49.426;11.182;2023-11-21T14:09:20;25.50;54.70
11538;DHT22;50159;49.426;11.182;2023-11-21T14:11:55;26.30;50.60
11538;DHT22;50159;49.426;11.182;2023-11-21T14:14:25;26.70;46.70
11538;DHT22;50159;49.426;11.182;2023-11-21T14:16:54;26.70;45.70
11538;DHT22;50159;49.426;11.182;2023-11-21T14:19:22;25.60;44.40
11538;DHT22;50159;49.426;11.182;2023-11-21T14:21:53;23.20;46.40
11538;DHT22;50159;49.426;11.182;2023-11-21T14:24:21;20.70;50.80
11538;DHT22;50159;49.426;11.182;2023-11-21T14:26:50;18.60;54.90
11538;DHT22;50159;49.426;11.182;2023-11-21T14:29:18;16.90;58.80
11538;DHT22;50159;49.426;11.182;2023-11-21T14:31:50;15.60;63.30
11538;DHT22;50159;49.426;11.182;2023-11-21T14:34:18;14.60;67.90
11538;DHT22;50159;49.426;11.182;2023-11-21T14:36:49;13.70;71.60
11538;DHT22;50159;49.426;11.182;2023-11-21T14:39:16;13.10;75.40
11538;DHT22;50159;49.426;11.182;2023-11-21T14:41:56;12.50;79.00
11538;DHT22;50159;49.426;11.182;2023-11-21T14:44:24;12.00;83.20
11538;DHT22;50159;49.426;11.182;2023-11-21T14:46:54;11.70;87.90
11538;DHT22;50159;49.426;11.182;2023-11-21T14:51:55;11.20;93.30
11538;DHT22;50159;49.426;11.182;2023-11-21T14:54:22;11.00;95.90
11538;DHT22;50159;49.426;11.182;2023-11-21T14:57:07;10.80;98.00
11538;DHT22;50159;49.426;11.182;2023-11-21T15:02:18;10.40;99.90
11538;DHT22;50159;49.426;11.182;2023-11-21T15:05:09;10.30;99.90
11538;DHT22;50159;49.426;11.182;2023-11-21T15:10:10;10.00;99.90
11538;DHT22;50159;49.426;11.182;2023-11-21T15:12:41;9.90;99.90
11538;DHT22;50159;49.426;11.182;2023-11-21T15:15:10;9.70;99.90
11538;DHT22;50159;49.426;11.182;2023-11-21T15:17:37;9.60;99.90
11538;DHT22;50159;49.426;11.182;2023-11-21T15:20:06;9.50;99.90
11538;DHT22;50159;49.426;11.182;2023-11-21T15:22:35;9.40;99.90
11538;DHT22;50159;49.426;11.182;2023-11-21T15:25:02;9.30;99.90
11538;DHT22;50159;49.426;11.182;2023-11-21T15:30:04;9.10;99.90
11538;DHT22;50159;49.426;11.182;2023-11-21T15:32:32;9.10;99.90
11538;DHT22;50159;49.426;11.182;2023-11-21T15:34:59;8.90;99.90
11538;DHT22;50159;49.426;11.182;2023-11-21T15:37:26;8.90;99.90
11538;DHT22;50159;49.426;11.182;2023-11-21T15:39:57;8.80;99.90
11538;DHT22;50159;49.426;11.182;2023-11-21T15:42:25;8.70;99.90
11538;DHT22;50159;49.426;11.182;2023-11-21T15:44:53;8.60;99.90
11538;DHT22;50159;49.426;11.182;2023-11-21T15:47:20;8.60;99.90
11538;DHT22;50159;49.426;11.182;2023-11-21T15:49:47;8.50;99.90
11538;DHT22;50159;49.426;11.182;2023-11-21T15:52:16;8.50;99.90
11538;DHT22;50159;49.426;11.182;2023-11-21T15:54:43;8.50;99.90
11538;DHT22;50159;49.426;11.182;2023-11-21T15:57:13;8.40;99.90